首页
METAR-TAF:

METAR-TAF

机场 :

Oswego County Airport

弗尔顿, 紐約州, 美国

纬度: 43-21-03N, 经度: 076-23-17W, 海拔: 145米

当前天气观测

该预报发布于22分钟前的06:54 UTC
风速3节,风向北转西北
温度 0°C
湿度 64%
气压 1020 hPa
能見度: 16.1公里
多云层高于3500英尺
阴天层高于6500英尺

METAR: KFZY 170654Z AUTO 34003KT 10SM BKN035 OVC065 00/M06 A3013 RMK AO2 SLP206 T00001056

时间: 02:16 (07:16 UTC)


TAF: 丢失

超过4000个机场的气象观测和天气预报(METAR&TAF报告)。

可查询的气象台以黄色和红色小点在地图上表示。

将鼠标移到小点上方,可查看气象台名称。

然后点击查看天气观测和预报。

如需切换地图:点击带黑十字的绿色按钮放大地图;点击带横线的绿色按钮缩小地图;或者点击绿色箭头查看邻近地区的地图。


METAR-TAF: